sensor_id;sensor_type;location;lat;lon;timestamp;pressure;altitude;pressure_sealevel;temperature;humidity
18988;BME280;5494;51.796;10.952;2023-04-06T00:02:19;99358.19;;;3.24;55.03
18988;BME280;5494;51.796;10.952;2023-04-06T00:04:47;99349.63;;;3.25;55.27
18988;BME280;5494;51.796;10.952;2023-04-06T00:07:16;99350.28;;;3.37;54.46
18988;BME280;5494;51.796;10.952;2023-04-06T00:09:43;99349.31;;;3.43;54.56
18988;BME280;5494;51.796;10.952;2023-04-06T00:12:13;99344.28;;;3.38;54.51
18988;BME280;5494;51.796;10.952;2023-04-06T00:14:41;99351.91;;;3.43;53.93
18988;BME280;5494;51.796;10.952;2023-04-06T00:17:09;99350.19;;;3.42;54.71
18988;BME280;5494;51.796;10.952;2023-04-06T00:19:37;99343.34;;;3.41;54.41
18988;BME280;5494;51.796;10.952;2023-04-06T00:22:05;99342.50;;;3.40;54.45
18988;BME280;5494;51.796;10.952;2023-04-06T00:24:33;99342.50;;;3.40;54.47
18988;BME280;5494;51.796;10.952;2023-04-06T00:27:01;99347.59;;;3.45;54.69
18988;BME280;5494;51.796;10.952;2023-04-06T00:29:30;99349.31;;;3.43;54.49
18988;BME280;5494;51.796;10.952;2023-04-06T00:31:59;99340.06;;;3.33;54.77
18988;BME280;5494;51.796;10.952;2023-04-06T00:34:27;99333.16;;;3.36;54.65
18988;BME280;5494;51.796;10.952;2023-04-06T00:36:55;99337.47;;;3.34;54.90
18988;BME280;5494;51.796;10.952;2023-04-06T00:39:23;99341.81;;;3.31;55.24
18988;BME280;5494;51.796;10.952;2023-04-06T00:41:52;99333.25;;;3.30;54.90
18988;BME280;5494;51.796;10.952;2023-04-06T00:44:21;99332.41;;;3.31;55.19
18988;BME280;5494;51.796;10.952;2023-04-06T00:46:50;99335.75;;;3.35;54.77
18988;BME280;5494;51.796;10.952;2023-04-06T00:49:18;99327.38;;;3.24;55.03
18988;BME280;5494;51.796;10.952;2023-04-06T00:51:47;99326.53;;;3.23;54.52
18988;BME280;5494;51.796;10.952;2023-04-06T00:54:15;99323.03;;;3.26;54.58
18988;BME280;5494;51.796;10.952;2023-04-06T00:56:43;99317.97;;;3.24;54.40
18988;BME280;5494;51.796;10.952;2023-04-06T00:59:11;99317.22;;;3.16;54.72
18988;BME280;5494;51.796;10.952;2023-04-06T01:01:40;99317.13;;;3.21;54.39
18988;BME280;5494;51.796;10.952;2023-04-06T01:04:24;99322.38;;;3.14;54.70
18988;BME280;5494;51.796;10.952;2023-04-06T01:06:56;99318.19;;;3.09;54.75
18988;BME280;5494;51.796;10.952;2023-04-06T01:09:30;99307.06;;;3.08;54.70
18988;BME280;5494;51.796;10.952;2023-04-06T01:12:03;99317.22;;;3.17;54.71
18988;BME280;5494;51.796;10.952;2023-04-06T01:14:33;99313.06;;;3.07;55.03
18988;BME280;5494;51.796;10.952;2023-04-06T01:17:02;99309.75;;;3.01;54.71
18988;BME280;5494;51.796;10.952;2023-04-06T01:19:34;99308.88;;;3.03;55.17
18988;BME280;5494;51.796;10.952;2023-04-06T01:22:02;99306.25;;;3.05;54.48
18988;BME280;5494;51.796;10.952;2023-04-06T01:24:32;99305.41;;;3.04;54.69
18988;BME280;5494;51.796;10.952;2023-04-06T01:27:08;99303.81;;;2.97;55.46
18988;BME280;5494;51.796;10.952;2023-04-06T01:29:49;99297.84;;;2.95;55.24
18988;BME280;5494;51.796;10.952;2023-04-06T01:32:33;99313.28;;;2.94;55.53
18988;BME280;5494;51.796;10.952;2023-04-06T01:35:01;99298.75;;;2.91;55.50
18988;BME280;5494;51.796;10.952;2023-04-06T01:37:32;99295.28;;;2.95;55.32
18988;BME280;5494;51.796;10.952;2023-04-06T01:40:07;99298.03;;;2.83;55.81
18988;BME280;5494;51.796;10.952;2023-04-06T01:42:42;99292.91;;;2.82;55.53
18988;BME280;5494;51.796;10.952;2023-04-06T01:45:14;99299.81;;;2.78;56.07
18988;BME280;5494;51.796;10.952;2023-04-06T01:47:43;99301.59;;;2.73;56.18
18988;BME280;5494;51.796;10.952;2023-04-06T01:50:12;99296.56;;;2.67;56.63
18988;BME280;5494;51.796;10.952;2023-04-06T01:52:44;99296.50;;;2.70;56.03
18988;BME280;5494;51.796;10.952;2023-04-06T01:55:14;99294.84;;;2.67;56.57
18988;BME280;5494;51.796;10.952;2023-04-06T01:58:17;99294.00;;;2.64;56.50
18988;BME280;5494;51.796;10.952;2023-04-06T02:00:45;99292.31;;;2.63;56.51
18988;BME280;5494;51.796;10.952;2023-04-06T02:03:14;99296.69;;;2.56;56.82
18988;BME280;5494;51.796;10.952;2023-04-06T02:05:43;99293.34;;;2.51;57.09
18988;BME280;5494;51.796;10.952;2023-04-06T02:08:21;99297.69;;;2.48;57.82
18988;BME280;5494;51.796;10.952;2023-04-06T02:10:50;99301.03;;;2.50;57.22
18988;BME280;5494;51.796;10.952;2023-04-06T02:13:27;99302.03;;;2.41;57.52
18988;BME280;5494;51.796;10.952;2023-04-06T02:15:56;99300.38;;;2.37;57.53
18988;BME280;5494;51.796;10.952;2023-04-06T02:18:26;99304.53;;;2.44;57.65
18988;BME280;5494;51.796;10.952;2023-04-06T02:20:55;99297.75;;;2.42;57.81
18988;BME280;5494;51.796;10.952;2023-04-06T02:23:23;99305.47;;;2.40;57.66
18988;BME280;5494;51.796;10.952;2023-04-06T02:25:52;99309.75;;;2.38;58.15
18988;BME280;5494;51.796;10.952;2023-04-06T02:28:23;99300.34;;;2.38;58.49
18988;BME280;5494;51.796;10.952;2023-04-06T02:30:50;99297.78;;;2.40;58.35
18988;BME280;5494;51.796;10.952;2023-04-06T02:33:22;99293.59;;;2.33;57.89
18988;BME280;5494;51.796;10.952;2023-04-06T02:35:50;99291.00;;;2.34;58.46
18988;BME280;5494;51.796;10.952;2023-04-06T02:38:18;99284.22;;;2.29;57.82
18988;BME280;5494;51.796;10.952;2023-04-06T02:40:46;99286.88;;;2.21;58.29
18988;BME280;5494;51.796;10.952;2023-04-06T02:43:20;99288.63;;;2.19;58.78
18988;BME280;5494;51.796;10.952;2023-04-06T02:45:53;99284.38;;;2.15;59.76
18988;BME280;5494;51.796;10.952;2023-04-06T02:48:22;99289.56;;;2.12;59.78
18988;BME280;5494;51.796;10.952;2023-04-06T02:50:52;99283.56;;;2.13;60.38
18988;BME280;5494;51.796;10.952;2023-04-06T02:53:20;99287.97;;;2.02;60.66
18988;BME280;5494;51.796;10.952;2023-04-06T02:55:48;99285.31;;;2.08;61.19
18988;BME280;5494;51.796;10.952;2023-04-06T02:58:16;99281.13;;;2.01;60.90
18988;BME280;5494;51.796;10.952;2023-04-06T03:00:50;99285.41;;;2.02;60.91
18988;BME280;5494;51.796;10.952;2023-04-06T03:03:18;99282.97;;;1.93;61.25
18988;BME280;5494;51.796;10.952;2023-04-06T03:05:47;99271.94;;;1.85;62.01
18988;BME280;5494;51.796;10.952;2023-04-06T03:08:22;99272.75;;;1.87;61.90
18988;BME280;5494;51.796;10.952;2023-04-06T03:10:50;99277.69;;;2.05;60.47
18988;BME280;5494;51.796;10.952;2023-04-06T03:13:18;99281.13;;;2.01;61.05
18988;BME280;5494;51.796;10.952;2023-04-06T03:15:57;99275.91;;;2.10;60.49
18988;BME280;5494;51.796;10.952;2023-04-06T03:18:26;99276.06;;;2.00;60.51
18988;BME280;5494;51.796;10.952;2023-04-06T03:20:56;99275.28;;;1.90;61.68
18988;BME280;5494;51.796;10.952;2023-04-06T03:23:30;99280.41;;;1.90;62.13
18988;BME280;5494;51.796;10.952;2023-04-06T03:26:01;99281.28;;;1.89;61.85
18988;BME280;5494;51.796;10.952;2023-04-06T03:28:29;99279.47;;;1.97;61.63
18988;BME280;5494;51.796;10.952;2023-04-06T03:31:03;99287.25;;;1.91;61.33
18988;BME280;5494;51.796;10.952;2023-04-06T03:33:43;99282.25;;;1.79;62.11
18988;BME280;5494;51.796;10.952;2023-04-06T03:36:22;99289.97;;;1.76;61.71
18988;BME280;5494;51.796;10.952;2023-04-06T03:38:53;99285.00;;;1.61;62.85
18988;BME280;5494;51.796;10.952;2023-04-06T03:41:21;99291.81;;;1.60;62.74
18988;BME280;5494;51.796;10.952;2023-04-06T03:44:05;99291.03;;;1.56;63.15
18988;BME280;5494;51.796;10.952;2023-04-06T03:46:34;99290.19;;;1.54;64.00
18988;BME280;5494;51.796;10.952;2023-04-06T03:49:02;99286.81;;;1.49;64.76
18988;BME280;5494;51.796;10.952;2023-04-06T03:51:30;99294.53;;;1.46;65.58
18988;BME280;5494;51.796;10.952;2023-04-06T03:53:58;99285.03;;;1.57;65.54
18988;BME280;5494;51.796;10.952;2023-04-06T03:56:26;99284.25;;;1.49;65.01
18988;BME280;5494;51.796;10.952;2023-04-06T03:58:54;99288.53;;;1.46;65.41
18988;BME280;5494;51.796;10.952;2023-04-06T04:01:22;99287.69;;;1.47;64.35
18988;BME280;5494;51.796;10.952;2023-04-06T04:03:53;99297.19;;;1.33;65.69
18988;BME280;5494;51.796;10.952;2023-04-06T04:06:22;99292.97;;;1.29;65.15
18988;BME280;5494;51.796;10.952;2023-04-06T04:08:51;99290.38;;;1.33;65.05
18988;BME280;5494;51.796;10.952;2023-04-06T04:11:18;99307.50;;;1.28;65.19
18988;BME280;5494;51.796;10.952;2023-04-06T04:13:55;99302.38;;;1.28;65.06
18988;BME280;5494;51.796;10.952;2023-04-06T04:16:22;99299.00;;;1.23;65.89
18988;BME280;5494;51.796;10.952;2023-04-06T04:18:52;99305.84;;;1.21;66.61
18988;BME280;5494;51.796;10.952;2023-04-06T04:21:20;99303.28;;;1.21;67.26
18988;BME280;5494;51.796;10.952;2023-04-06T04:23:48;99305.91;;;1.15;68.50
18988;BME280;5494;51.796;10.952;2023-04-06T04:26:16;99302.53;;;1.04;69.81
18988;BME280;5494;51.796;10.952;2023-04-06T04:28:45;99308.66;;;0.88;71.05
18988;BME280;5494;51.796;10.952;2023-04-06T04:31:14;99310.41;;;0.83;71.03
18988;BME280;5494;51.796;10.952;2023-04-06T04:33:47;99306.16;;;0.80;71.88
18988;BME280;5494;51.796;10.952;2023-04-06T04:36:23;99303.63;;;0.75;72.49
18988;BME280;5494;51.796;10.952;2023-04-06T04:38:53;99304.47;;;0.74;73.31
18988;BME280;5494;51.796;10.952;2023-04-06T04:41:22;99302.78;;;0.72;73.40
18988;BME280;5494;51.796;10.952;2023-04-06T04:43:50;99297.66;;;0.70;73.88
18988;BME280;5494;51.796;10.952;2023-04-06T04:46:21;99306.19;;;0.74;74.29
18988;BME280;5494;51.796;10.952;2023-04-06T04:48:51;99296.81;;;0.76;74.69
18988;BME280;5494;51.796;10.952;2023-04-06T04:51:19;99304.38;;;0.90;74.96
18988;BME280;5494;51.796;10.952;2023-04-06T04:54:10;99305.97;;;1.04;74.80
18988;BME280;5494;51.796;10.952;2023-04-06T04:56:39;99299.91;;;1.17;74.48
18988;BME280;5494;51.796;10.952;2023-04-06T04:59:22;99296.31;;;1.38;72.60
18988;BME280;5494;51.796;10.952;2023-04-06T05:01:57;99298.78;;;1.47;71.64
18988;BME280;5494;51.796;10.952;2023-04-06T05:04:35;99305.41;;;1.70;70.65
18988;BME280;5494;51.796;10.952;2023-04-06T05:07:06;99299.22;;;1.87;70.09
18988;BME280;5494;51.796;10.952;2023-04-06T05:09:37;99294.00;;;1.98;68.43
18988;BME280;5494;51.796;10.952;2023-04-06T05:12:07;99302.22;;;2.27;68.50
18988;BME280;5494;51.796;10.952;2023-04-06T05:14:43;99306.31;;;2.39;66.74
18988;BME280;5494;51.796;10.952;2023-04-06T05:17:14;99300.44;;;2.29;64.58
18988;BME280;5494;51.796;10.952;2023-04-06T05:19:43;99306.06;;;2.57;65.00
18988;BME280;5494;51.796;10.952;2023-04-06T05:22:15;99308.16;;;2.92;62.99
18988;BME280;5494;51.796;10.952;2023-04-06T05:24:49;99302.53;;;3.24;62.43
18988;BME280;5494;51.796;10.952;2023-04-06T05:27:17;99306.31;;;3.54;60.31
18988;BME280;5494;51.796;10.952;2023-04-06T05:29:46;99307.03;;;3.61;58.03
18988;BME280;5494;51.796;10.952;2023-04-06T05:32:15;99307.66;;;3.75;58.28
18988;BME280;5494;51.796;10.952;2023-04-06T05:34:44;99300.69;;;4.26;57.20
18988;BME280;5494;51.796;10.952;2023-04-06T05:37:12;99302.50;;;4.62;53.35
18988;BME280;5494;51.796;10.952;2023-04-06T05:39:40;99314.41;;;5.40;51.46
18988;BME280;5494;51.796;10.952;2023-04-06T05:42:10;99311.22;;;5.31;49.86
18988;BME280;5494;51.796;10.952;2023-04-06T05:44:51;99310.50;;;5.60;50.33
18988;BME280;5494;51.796;10.952;2023-04-06T05:47:20;99311.75;;;5.77;49.98
18988;BME280;5494;51.796;10.952;2023-04-06T05:49:54;99312.78;;;6.04;49.62
18988;BME280;5494;51.796;10.952;2023-04-06T05:52:31;99314.44;;;6.07;47.25
18988;BME280;5494;51.796;10.952;2023-04-06T05:54:59;99313.09;;;6.24;48.72
18988;BME280;5494;51.796;10.952;2023-04-06T05:57:28;99314.97;;;6.19;48.24
18988;BME280;5494;51.796;10.952;2023-04-06T05:59:56;99312.03;;;6.31;47.92
18988;BME280;5494;51.796;10.952;2023-04-06T06:02:38;99309.94;;;6.15;48.00
18988;BME280;5494;51.796;10.952;2023-04-06T06:05:09;99310.25;;;5.69;48.80
18988;BME280;5494;51.796;10.952;2023-04-06T06:07:40;99314.84;;;5.58;49.00
18988;BME280;5494;51.796;10.952;2023-04-06T06:10:09;99308.53;;;5.35;50.27
18988;BME280;5494;51.796;10.952;2023-04-06T06:12:39;99313.81;;;5.31;49.87
18988;BME280;5494;51.796;10.952;2023-04-06T06:15:07;99301.66;;;5.34;50.49
18988;BME280;5494;51.796;10.952;2023-04-06T06:17:40;99303.84;;;5.83;49.23
18988;BME280;5494;51.796;10.952;2023-04-06T06:20:10;99309.91;;;5.82;49.73
18988;BME280;5494;51.796;10.952;2023-04-06T06:22:38;99310.50;;;5.93;50.00
18988;BME280;5494;51.796;10.952;2023-04-06T06:25:11;99307.47;;;6.41;48.93
18988;BME280;5494;51.796;10.952;2023-04-06T06:27:41;99304.03;;;6.98;47.00
18988;BME280;5494;51.796;10.952;2023-04-06T06:30:10;99300.16;;;7.64;45.66
18988;BME280;5494;51.796;10.952;2023-04-06T06:32:40;99303.81;;;8.08;43.06
18988;BME280;5494;51.796;10.952;2023-04-06T06:35:09;99296.63;;;8.16;42.23
18988;BME280;5494;51.796;10.952;2023-04-06T06:37:37;99294.59;;;8.49;42.03
18988;BME280;5494;51.796;10.952;2023-04-06T06:40:09;99292.94;;;8.46;41.30
18988;BME280;5494;51.796;10.952;2023-04-06T06:42:42;99292.16;;;9.33;41.35
18988;BME280;5494;51.796;10.952;2023-04-06T06:45:19;99286.94;;;9.95;38.98
18988;BME280;5494;51.796;10.952;2023-04-06T06:47:47;99293.06;;;10.13;37.49
18988;BME280;5494;51.796;10.952;2023-04-06T06:50:15;99292.94;;;10.55;36.97
18988;BME280;5494;51.796;10.952;2023-04-06T06:52:44;99298.13;;;10.36;36.78
18988;BME280;5494;51.796;10.952;2023-04-06T06:55:14;99291.47;;;10.68;36.72
18988;BME280;5494;51.796;10.952;2023-04-06T06:57:43;99293.75;;;10.93;36.87
18988;BME280;5494;51.796;10.952;2023-04-06T07:00:14;99292.25;;;11.42;36.35
18988;BME280;5494;51.796;10.952;2023-04-06T07:02:45;99288.69;;;11.79;35.05
18988;BME280;5494;51.796;10.952;2023-04-06T07:05:13;99280.09;;;11.77;34.38
18988;BME280;5494;51.796;10.952;2023-04-06T07:07:56;99289.50;;;11.97;35.04
18988;BME280;5494;51.796;10.952;2023-04-06T07:10:25;99278.34;;;12.28;34.60
18988;BME280;5494;51.796;10.952;2023-04-06T07:12:55;99277.03;;;12.36;34.33
18988;BME280;5494;51.796;10.952;2023-04-06T07:15:24;99275.50;;;12.48;34.68
18988;BME280;5494;51.796;10.952;2023-04-06T07:17:52;99281.00;;;12.43;34.66
18988;BME280;5494;51.796;10.952;2023-04-06T07:20:21;99283.50;;;13.08;33.66
18988;BME280;5494;51.796;10.952;2023-04-06T07:22:49;99268.44;;;13.28;33.16
18988;BME280;5494;51.796;10.952;2023-04-06T07:25:17;99290.00;;;12.69;32.96
18988;BME280;5494;51.796;10.952;2023-04-06T07:27:45;99285.97;;;11.98;34.44
18988;BME280;5494;51.796;10.952;2023-04-06T07:30:17;99281.16;;;11.90;34.34
18988;BME280;5494;51.796;10.952;2023-04-06T07:32:45;99275.00;;;12.73;34.47
18988;BME280;5494;51.796;10.952;2023-04-06T07:35:14;99275.69;;;13.08;33.79
18988;BME280;5494;51.796;10.952;2023-04-06T07:37:43;99271.66;;;13.33;32.84
18988;BME280;5494;51.796;10.952;2023-04-06T07:40:11;99278.06;;;12.96;32.93
18988;BME280;5494;51.796;10.952;2023-04-06T07:42:40;99277.22;;;12.96;32.49
18988;BME280;5494;51.796;10.952;2023-04-06T07:45:10;99282.53;;;12.79;33.25
18988;BME280;5494;51.796;10.952;2023-04-06T07:47:40;99275.28;;;12.68;32.26
18988;BME280;5494;51.796;10.952;2023-04-06T07:50:09;99266.19;;;12.44;32.28
18988;BME280;5494;51.796;10.952;2023-04-06T07:52:38;99272.97;;;12.46;32.35
18988;BME280;5494;51.796;10.952;2023-04-06T07:55:08;99272.69;;;12.84;32.24
18988;BME280;5494;51.796;10.952;2023-04-06T07:57:36;99273.34;;;13.03;31.94
18988;BME280;5494;51.796;10.952;2023-04-06T08:00:06;99267.44;;;13.15;31.53
18988;BME280;5494;51.796;10.952;2023-04-06T08:02:40;99267.53;;;12.82;32.13
18988;BME280;5494;51.796;10.952;2023-04-06T08:05:09;99264.16;;;13.12;31.96
18988;BME280;5494;51.796;10.952;2023-04-06T08:07:37;99273.66;;;13.28;31.61
18988;BME280;5494;51.796;10.952;2023-04-06T08:10:05;99278.72;;;13.00;31.93
18988;BME280;5494;51.796;10.952;2023-04-06T08:12:34;99271.75;;;13.16;31.84
18988;BME280;5494;51.796;10.952;2023-04-06T08:15:03;99268.03;;;13.05;32.17
18988;BME280;5494;51.796;10.952;2023-04-06T08:17:31;99268.28;;;13.61;31.15
18988;BME280;5494;51.796;10.952;2023-04-06T08:20:02;99274.63;;;13.41;31.45
18988;BME280;5494;51.796;10.952;2023-04-06T08:22:31;99271.69;;;13.48;31.03
18988;BME280;5494;51.796;10.952;2023-04-06T08:24:58;99270.00;;;14.05;31.58
18988;BME280;5494;51.796;10.952;2023-04-06T08:27:27;99274.88;;;14.68;31.60
18988;BME280;5494;51.796;10.952;2023-04-06T08:29:55;99277.53;;;14.94;29.84
18988;BME280;5494;51.796;10.952;2023-04-06T08:32:23;99277.69;;;15.06;28.78
18988;BME280;5494;51.796;10.952;2023-04-06T08:34:53;99280.63;;;14.87;30.02
18988;BME280;5494;51.796;10.952;2023-04-06T08:37:24;99275.94;;;15.06;30.09
18988;BME280;5494;51.796;10.952;2023-04-06T08:39:52;99273.19;;;15.08;29.53
18988;BME280;5494;51.796;10.952;2023-04-06T08:42:22;99277.47;;;14.82;29.10
18988;BME280;5494;51.796;10.952;2023-04-06T08:44:53;99269.66;;;14.94;28.29
18988;BME280;5494;51.796;10.952;2023-04-06T08:47:21;99266.72;;;15.40;28.76
18988;BME280;5494;51.796;10.952;2023-04-06T08:49:52;99261.88;;;16.11;28.60
18988;BME280;5494;51.796;10.952;2023-04-06T08:52:23;99260.13;;;16.74;26.64
18988;BME280;5494;51.796;10.952;2023-04-06T08:54:52;99264.84;;;16.07;27.09
18988;BME280;5494;51.796;10.952;2023-04-06T08:57:21;99264.00;;;15.94;27.52
18988;BME280;5494;51.796;10.952;2023-04-06T08:59:51;99266.72;;;15.40;27.09
18988;BME280;5494;51.796;10.952;2023-04-06T09:02:22;99259.50;;;14.49;28.42
18988;BME280;5494;51.796;10.952;2023-04-06T09:04:53;99265.97;;;14.84;28.10
18988;BME280;5494;51.796;10.952;2023-04-06T09:07:23;99264.16;;;14.99;28.04
18988;BME280;5494;51.796;10.952;2023-04-06T09:09:51;99262.09;;;14.35;28.39
18988;BME280;5494;51.796;10.952;2023-04-06T09:12:25;99265.06;;;14.00;28.55
18988;BME280;5494;51.796;10.952;2023-04-06T09:14:53;99253.59;;;14.45;29.06
18988;BME280;5494;51.796;10.952;2023-04-06T09:17:23;99264.81;;;14.62;28.41
18988;BME280;5494;51.796;10.952;2023-04-06T09:19:53;99258.03;;;15.13;27.83
18988;BME280;5494;51.796;10.952;2023-04-06T09:22:22;99258.47;;;14.66;27.96
18988;BME280;5494;51.796;10.952;2023-04-06T09:24:53;99257.28;;;15.50;28.25
18988;BME280;5494;51.796;10.952;2023-04-06T09:27:31;99249.19;;;16.18;26.82
18988;BME280;5494;51.796;10.952;2023-04-06T09:30:08;99259.34;;;15.72;26.66
18988;BME280;5494;51.796;10.952;2023-04-06T09:32:48;99264.63;;;15.45;27.02
18988;BME280;5494;51.796;10.952;2023-04-06T09:35:17;99258.09;;;15.77;26.49
18988;BME280;5494;51.796;10.952;2023-04-06T09:37:50;99242.97;;;16.44;26.52
18988;BME280;5494;51.796;10.952;2023-04-06T09:40:19;99253.00;;;16.76;26.39
18988;BME280;5494;51.796;10.952;2023-04-06T09:42:50;99246.91;;;17.47;25.10
18988;BME280;5494;51.796;10.952;2023-04-06T09:45:19;99242.50;;;17.93;24.39
18988;BME280;5494;51.796;10.952;2023-04-06T09:47:49;99248.13;;;17.54;24.39
18988;BME280;5494;51.796;10.952;2023-04-06T09:50:19;99244.66;;;17.29;24.72
18988;BME280;5494;51.796;10.952;2023-04-06T09:52:50;99237.97;;;17.60;24.49
18988;BME280;5494;51.796;10.952;2023-04-06T09:55:27;99232.00;;;17.23;25.08
18988;BME280;5494;51.796;10.952;2023-04-06T09:58:04;99236.47;;;17.34;25.03
18988;BME280;5494;51.796;10.952;2023-04-06T10:00:44;99232.84;;;16.76;24.82
18988;BME280;5494;51.796;10.952;2023-04-06T10:03:21;99241.88;;;16.60;25.76
18988;BME280;5494;51.796;10.952;2023-04-06T10:05:57;99233.13;;;17.43;25.23
18988;BME280;5494;51.796;10.952;2023-04-06T10:08:28;99222.31;;;17.59;24.57
18988;BME280;5494;51.796;10.952;2023-04-06T10:11:01;99233.47;;;16.80;25.09
18988;BME280;5494;51.796;10.952;2023-04-06T10:13:29;99227.66;;;17.46;24.88
18988;BME280;5494;51.796;10.952;2023-04-06T10:15:59;99233.06;;;17.91;24.50
18988;BME280;5494;51.796;10.952;2023-04-06T10:18:28;99221.47;;;18.16;23.93
18988;BME280;5494;51.796;10.952;2023-04-06T10:21:01;99212.38;;;18.20;23.76
18988;BME280;5494;51.796;10.952;2023-04-06T10:23:36;99221.94;;;17.98;24.61
18988;BME280;5494;51.796;10.952;2023-04-06T10:26:13;99233.09;;;17.56;25.45
18988;BME280;5494;51.796;10.952;2023-04-06T10:28:45;99219.06;;;18.13;24.34
18988;BME280;5494;51.796;10.952;2023-04-06T10:31:25;99224.94;;;17.48;23.86
18988;BME280;5494;51.796;10.952;2023-04-06T10:33:55;99231.19;;;16.50;24.84
18988;BME280;5494;51.796;10.952;2023-04-06T10:36:25;99229.81;;;15.95;25.74
18988;BME280;5494;51.796;10.952;2023-04-06T10:38:57;99234.63;;;15.89;26.29
18988;BME280;5494;51.796;10.952;2023-04-06T10:41:33;99233.47;;;15.80;25.90
18988;BME280;5494;51.796;10.952;2023-04-06T10:44:02;99234.34;;;15.41;25.94
18988;BME280;5494;51.796;10.952;2023-04-06T10:46:32;99227.69;;;14.96;27.10
18988;BME280;5494;51.796;10.952;2023-04-06T10:49:11;99225.84;;;14.57;26.64
18988;BME280;5494;51.796;10.952;2023-04-06T10:51:39;99230.44;;;14.80;27.52
18988;BME280;5494;51.796;10.952;2023-04-06T10:54:11;99223.03;;;13.61;27.98
18988;BME280;5494;51.796;10.952;2023-04-06T10:56:40;99229.72;;;13.51;29.21
18988;BME280;5494;51.796;10.952;2023-04-06T10:59:08;99215.72;;;13.52;29.23
18988;BME280;5494;51.796;10.952;2023-04-06T11:01:36;99228.41;;;13.58;28.83
18988;BME280;5494;51.796;10.952;2023-04-06T11:04:04;99224.03;;;13.58;29.43
18988;BME280;5494;51.796;10.952;2023-04-06T11:06:34;99227.13;;;12.74;29.23
18988;BME280;5494;51.796;10.952;2023-04-06T11:09:02;99226.13;;;12.60;30.29
18988;BME280;5494;51.796;10.952;2023-04-06T11:11:32;99226.16;;;12.76;30.46
18988;BME280;5494;51.796;10.952;2023-04-06T11:14:00;99215.00;;;12.88;30.79
18988;BME280;5494;51.796;10.952;2023-04-06T11:16:31;99217.41;;;13.07;30.43
18988;BME280;5494;51.796;10.952;2023-04-06T11:19:01;99223.25;;;13.12;30.58
18988;BME280;5494;51.796;10.952;2023-04-06T11:21:36;99212.66;;;12.99;29.90
18988;BME280;5494;51.796;10.952;2023-04-06T11:24:08;99220.59;;;12.67;30.04
18988;BME280;5494;51.796;10.952;2023-04-06T11:26:40;99217.31;;;12.63;31.04
18988;BME280;5494;51.796;10.952;2023-04-06T11:29:09;99220.00;;;12.61;30.45
18988;BME280;5494;51.796;10.952;2023-04-06T11:31:41;99207.38;;;12.54;31.25
18988;BME280;5494;51.796;10.952;2023-04-06T11:34:12;99206.44;;;12.39;30.45
18988;BME280;5494;51.796;10.952;2023-04-06T11:36:42;99210.59;;;12.43;31.05
18988;BME280;5494;51.796;10.952;2023-04-06T11:39:11;99212.28;;;12.44;30.67
18988;BME280;5494;51.796;10.952;2023-04-06T11:41:40;99216.28;;;12.66;30.06
18988;BME280;5494;51.796;10.952;2023-04-06T11:44:08;99207.81;;;12.78;29.44
18988;BME280;5494;51.796;10.952;2023-04-06T11:46:36;99203.84;;;12.39;29.80
18988;BME280;5494;51.796;10.952;2023-04-06T11:49:05;99204.63;;;11.93;31.41
18988;BME280;5494;51.796;10.952;2023-04-06T11:51:36;99201.44;;;11.88;31.43
18988;BME280;5494;51.796;10.952;2023-04-06T11:54:04;99207.28;;;12.08;32.77
18988;BME280;5494;51.796;10.952;2023-04-06T11:56:32;99199.28;;;12.11;31.59
18988;BME280;5494;51.796;10.952;2023-04-06T11:59:02;99201.75;;;11.81;32.20
18988;BME280;5494;51.796;10.952;2023-04-06T12:01:33;99192.88;;;12.01;31.82
18988;BME280;5494;51.796;10.952;2023-04-06T12:04:05;99190.94;;;12.05;32.22
18988;BME280;5494;51.796;10.952;2023-04-06T12:06:33;99184.81;;;12.06;32.51
18988;BME280;5494;51.796;10.952;2023-04-06T12:09:01;99186.66;;;12.04;32.59
18988;BME280;5494;51.796;10.952;2023-04-06T12:11:29;99184.44;;;11.80;32.29
18988;BME280;5494;51.796;10.952;2023-04-06T12:13:57;99178.34;;;11.47;32.12
18988;BME280;5494;51.796;10.952;2023-04-06T12:16:27;99178.31;;;11.64;33.63
18988;BME280;5494;51.796;10.952;2023-04-06T12:18:55;99178.47;;;11.78;34.09
18988;BME280;5494;51.796;10.952;2023-04-06T12:21:23;99176.63;;;11.63;34.75
18988;BME280;5494;51.796;10.952;2023-04-06T12:23:51;99171.75;;;11.23;34.88
18988;BME280;5494;51.796;10.952;2023-04-06T12:26:19;99167.09;;;11.29;35.23
18988;BME280;5494;51.796;10.952;2023-04-06T12:28:47;99161.50;;;11.54;34.84
18988;BME280;5494;51.796;10.952;2023-04-06T12:31:15;99164.44;;;11.81;34.41
18988;BME280;5494;51.796;10.952;2023-04-06T12:33:47;99161.25;;;11.92;32.71
18988;BME280;5494;51.796;10.952;2023-04-06T12:36:18;99152.03;;;12.17;32.62
18988;BME280;5494;51.796;10.952;2023-04-06T12:38:48;99155.34;;;12.37;32.03
18988;BME280;5494;51.796;10.952;2023-04-06T12:41:17;99164.22;;;12.33;31.39
18988;BME280;5494;51.796;10.952;2023-04-06T12:43:46;99162.47;;;12.17;30.54
18988;BME280;5494;51.796;10.952;2023-04-06T12:46:14;99156.22;;;12.04;30.33
18988;BME280;5494;51.796;10.952;2023-04-06T12:48:42;99159.34;;;12.11;31.46
18988;BME280;5494;51.796;10.952;2023-04-06T12:51:11;99151.53;;;12.11;31.16
18988;BME280;5494;51.796;10.952;2023-04-06T12:53:40;99160.78;;;12.32;31.16
18988;BME280;5494;51.796;10.952;2023-04-06T12:56:13;99144.03;;;12.52;30.60
18988;BME280;5494;51.796;10.952;2023-04-06T12:58:41;99144.13;;;12.50;30.91
18988;BME280;5494;51.796;10.952;2023-04-06T13:01:09;99140.09;;;12.45;29.99
18988;BME280;5494;51.796;10.952;2023-04-06T13:03:40;99151.78;;;12.53;30.01
18988;BME280;5494;51.796;10.952;2023-04-06T13:06:10;99140.44;;;12.54;30.14
18988;BME280;5494;51.796;10.952;2023-04-06T13:08:39;99144.31;;;12.47;30.34
18988;BME280;5494;51.796;10.952;2023-04-06T13:11:08;99143.22;;;12.20;29.87
18988;BME280;5494;51.796;10.952;2023-04-06T13:13:38;99141.63;;;12.02;31.47
18988;BME280;5494;51.796;10.952;2023-04-06T13:16:08;99132.69;;;12.06;31.87
18988;BME280;5494;51.796;10.952;2023-04-06T13:18:37;99131.84;;;12.05;32.09
18988;BME280;5494;51.796;10.952;2023-04-06T13:21:06;99129.84;;;12.26;32.46
18988;BME280;5494;51.796;10.952;2023-04-06T13:23:36;99133.97;;;12.14;31.48